Salem, MA

7:42 PM EDT on October 25, 2014 (GMT -0400)
Essex Street near Beckford | Change Station
CLOSE
Current Station
Personal Weather Station
Location: Salem, MA
Elevation: 46 ft
Nearby Weather Stations

Elev 46 ft 42.52 °N, 70.90 °W | Updated 2 minutes ago

Partly Cloudy
Partly Cloudy
58.0 °F
Feels Like 58.0 °F
N
3.0
Wind Variable Wind from West
Gusts 3.0 mph

Today
High -- | Low -- °F
--% Chance of Precip.
Yesterday
High -- | Low -- °F
Precip. -- in
7:08 AM 5:46 PM
Waxing Crescent, 5% visible
Pressure 29.57 in
Visibility 10.0 miles
Clouds Few 5000 ft
Dew Point 46 °F
Humidity 64%
Rainfall 0.00 in
Snow Depth Not available.
UV 0 out of 12
Pollen 1.60 out of 12
PM2.5 Good
Flu Activity Sporadic
METAR KBVY 252253Z 25004KT 10SM FEW050 13/04 A2958 RMK AO2 SLP012 T01330044 $

More Conditions Fewer Conditions

Pressure 29.57 in
Visibility 10.0 miles
Clouds Few 5000 ft
Dew Point 46 °F
Humidity 64%
Rainfall 0.00 in
Snow Depth Not available.
UV 0 out of 12
Pollen 1.60 out of 12
PM2.5 Good
Flu Activity Sporadic
METAR KBVY 252253Z 25004KT 10SM FEW050 13/04 A2958 RMK AO2 SLP012 T01330044 $

More Conditions Fewer Conditions

10-Day Weather Forecast

Almanac

Astronomy

Oct. 25, 2014 Rise Set
Actual Time 7:08 AM EDT 5:46 PM EDT
Civil Twilight 6:39 AM EDT 6:15 PM EDT
Nautical Twilight 6:06 AM EDT 6:47 PM EDT
Astronomical Twilight 5:34 AM EDT 7:20 PM EDT
Moon 8:45 AM EDT 7:05 PM EDT
Length of Visible Light 11h 35m
Length of Day
10h 37m
Tomorrow will be 2m 39s shorter.
Waxing Crescent, 5% of the Moon is Illuminated
Today
Waxing Crescent
Oct 30
First Quarter
Nov 6
Full
Nov 14
Last Quarter
Nov 22
New

Today's Extremes

State Highs State Lows

Community

WunderPhotos

Upload Photos

1,765,034 photos uploaded!

Nearby

Air Quality

  Air Quality AQ Index Pollutant
Yesterday Good
OZONE
Yesterday Good
PM2.5
Current Good
PM2.5
Saturday Good
PM2.5
Saturday Good
OZONE
Sunday Good
PM2.5
Sunday Good
OZONE

Snow Depth

Station Depth Elevation
No new snow has been reported.

Earthquake Activity

City Distance Mag. Time & Date
No recent earthquake activity has been reported nearby.
Minimum magnitude displayed is 2.5.

Coastal Water Temperatures

Place Temperature
Boston, MA 55.0 °F
Fall River, MA 61.0 °F

Nearby Weather Stations